sensor_id;sensor_type;location;lat;lon;timestamp;temperature;humidity
31379;DHT22;61664;48.112;11.662;2023-02-03T00:02:07;6.90;87.80
31379;DHT22;61664;48.112;11.662;2023-02-03T00:04:34;6.80;87.90
31379;DHT22;61664;48.112;11.662;2023-02-03T00:07:01;6.90;87.80
31379;DHT22;61664;48.112;11.662;2023-02-03T00:09:28;7.00;87.90
31379;DHT22;61664;48.112;11.662;2023-02-03T00:11:55;6.90;87.90
31379;DHT22;61664;48.112;11.662;2023-02-03T00:14:22;6.90;87.90
31379;DHT22;61664;48.112;11.662;2023-02-03T00:16:49;6.90;87.90
31379;DHT22;61664;48.112;11.662;2023-02-03T00:19:16;6.90;87.80
31379;DHT22;61664;48.112;11.662;2023-02-03T00:21:43;6.90;88.00
31379;DHT22;61664;48.112;11.662;2023-02-03T00:24:11;7.00;88.10
31379;DHT22;61664;48.112;11.662;2023-02-03T00:26:43;7.00;88.40
31379;DHT22;61664;48.112;11.662;2023-02-03T00:29:10;7.00;87.20
31379;DHT22;61664;48.112;11.662;2023-02-03T00:31:39;7.00;88.00
31379;DHT22;61664;48.112;11.662;2023-02-03T00:34:06;7.00;88.00
31379;DHT22;61664;48.112;11.662;2023-02-03T00:36:33;7.00;87.90
31379;DHT22;61664;48.112;11.662;2023-02-03T00:39:01;7.00;87.90
31379;DHT22;61664;48.112;11.662;2023-02-03T00:41:30;7.10;87.90
31379;DHT22;61664;48.112;11.662;2023-02-03T00:43:57;7.00;87.70
31379;DHT22;61664;48.112;11.662;2023-02-03T00:46:24;7.10;87.90
31379;DHT22;61664;48.112;11.662;2023-02-03T00:48:51;7.10;87.90
31379;DHT22;61664;48.112;11.662;2023-02-03T00:51:18;7.00;87.80
31379;DHT22;61664;48.112;11.662;2023-02-03T00:53:45;7.10;87.80
31379;DHT22;61664;48.112;11.662;2023-02-03T00:56:13;7.10;87.80
31379;DHT22;61664;48.112;11.662;2023-02-03T00:58:40;7.10;87.70
31379;DHT22;61664;48.112;11.662;2023-02-03T01:01:08;7.20;87.80
31379;DHT22;61664;48.112;11.662;2023-02-03T01:03:35;7.10;87.60
31379;DHT22;61664;48.112;11.662;2023-02-03T01:06:17;7.20;87.50
31379;DHT22;61664;48.112;11.662;2023-02-03T01:08:47;7.20;86.20
31379;DHT22;61664;48.112;11.662;2023-02-03T01:11:17;7.20;87.40
31379;DHT22;61664;48.112;11.662;2023-02-03T01:13:47;7.20;87.30
31379;DHT22;61664;48.112;11.662;2023-02-03T01:16:17;7.30;87.50
31379;DHT22;61664;48.112;11.662;2023-02-03T01:18:46;7.30;87.80
31379;DHT22;61664;48.112;11.662;2023-02-03T01:21:19;7.30;87.50
31379;DHT22;61664;48.112;11.662;2023-02-03T01:23:50;7.40;86.70
31379;DHT22;61664;48.112;11.662;2023-02-03T01:26:19;7.40;87.40
31379;DHT22;61664;48.112;11.662;2023-02-03T01:28:52;7.30;87.30
31379;DHT22;61664;48.112;11.662;2023-02-03T01:31:26;7.30;87.30
31379;DHT22;61664;48.112;11.662;2023-02-03T01:33:54;7.30;87.10
31379;DHT22;61664;48.112;11.662;2023-02-03T01:36:24;7.30;87.20
31379;DHT22;61664;48.112;11.662;2023-02-03T01:38:52;7.30;87.10
31379;DHT22;61664;48.112;11.662;2023-02-03T01:41:22;7.30;87.20
31379;DHT22;61664;48.112;11.662;2023-02-03T01:43:57;7.40;87.20
31379;DHT22;61664;48.112;11.662;2023-02-03T01:46:45;7.40;87.10
31379;DHT22;61664;48.112;11.662;2023-02-03T01:49:22;7.50;85.80
31379;DHT22;61664;48.112;11.662;2023-02-03T01:51:53;7.40;86.10
31379;DHT22;61664;48.112;11.662;2023-02-03T01:54:29;7.40;87.00
31379;DHT22;61664;48.112;11.662;2023-02-03T01:57:06;7.40;86.20
31379;DHT22;61664;48.112;11.662;2023-02-03T01:59:40;7.40;86.40
31379;DHT22;61664;48.112;11.662;2023-02-03T02:02:08;7.40;87.00
31379;DHT22;61664;48.112;11.662;2023-02-03T02:07:49;7.40;85.10
31379;DHT22;61664;48.112;11.662;2023-02-03T02:10:17;7.40;87.20
31379;DHT22;61664;48.112;11.662;2023-02-03T02:12:44;7.40;87.20
31379;DHT22;61664;48.112;11.662;2023-02-03T02:15:11;7.60;87.30
31379;DHT22;61664;48.112;11.662;2023-02-03T02:17:55;7.40;87.30
31379;DHT22;61664;48.112;11.662;2023-02-03T02:21:32;7.40;85.10
31379;DHT22;61664;48.112;11.662;2023-02-03T02:30:06;7.50;86.70
31379;DHT22;61664;48.112;11.662;2023-02-03T02:33:41;7.50;86.10
31379;DHT22;61664;48.112;11.662;2023-02-03T02:41:43;7.50;87.00
31379;DHT22;61664;48.112;11.662;2023-02-03T02:44:39;7.60;85.60
31379;DHT22;61664;48.112;11.662;2023-02-03T02:47:16;7.70;87.10
31379;DHT22;61664;48.112;11.662;2023-02-03T02:50:04;7.60;86.30
31379;DHT22;61664;48.112;11.662;2023-02-03T02:52:40;7.60;86.50
31379;DHT22;61664;48.112;11.662;2023-02-03T02:55:14;7.60;86.80
31379;DHT22;61664;48.112;11.662;2023-02-03T02:57:45;7.60;86.60
31379;DHT22;61664;48.112;11.662;2023-02-03T03:00:13;7.60;87.20
31379;DHT22;61664;48.112;11.662;2023-02-03T03:02:40;7.60;87.30
31379;DHT22;61664;48.112;11.662;2023-02-03T03:05:09;7.60;87.20
31379;DHT22;61664;48.112;11.662;2023-02-03T03:07:51;7.70;86.80
31379;DHT22;61664;48.112;11.662;2023-02-03T03:10:24;7.60;85.60
31379;DHT22;61664;48.112;11.662;2023-02-03T03:12:56;7.60;86.70
31379;DHT22;61664;48.112;11.662;2023-02-03T03:15:32;7.70;83.30
31379;DHT22;61664;48.112;11.662;2023-02-03T03:18:29;7.70;86.50
31379;DHT22;61664;48.112;11.662;2023-02-03T03:21:02;7.70;83.70
31379;DHT22;61664;48.112;11.662;2023-02-03T03:23:37;7.70;86.50
31379;DHT22;61664;48.112;11.662;2023-02-03T03:26:15;7.70;86.40
31379;DHT22;61664;48.112;11.662;2023-02-03T03:28:51;7.70;85.20
31379;DHT22;61664;48.112;11.662;2023-02-03T03:31:22;7.70;86.80
31379;DHT22;61664;48.112;11.662;2023-02-03T03:33:50;7.80;87.10
31379;DHT22;61664;48.112;11.662;2023-02-03T03:44:15;7.80;87.00
31379;DHT22;61664;48.112;11.662;2023-02-03T03:47:12;7.80;87.10
31379;DHT22;61664;48.112;11.662;2023-02-03T03:49:45;7.80;84.80
31379;DHT22;61664;48.112;11.662;2023-02-03T03:52:17;7.80;86.60
31379;DHT22;61664;48.112;11.662;2023-02-03T03:54:48;7.80;86.40
31379;DHT22;61664;48.112;11.662;2023-02-03T04:00:05;7.80;86.20
31379;DHT22;61664;48.112;11.662;2023-02-03T04:02:38;7.80;86.40
31379;DHT22;61664;48.112;11.662;2023-02-03T04:05:07;7.80;86.40
31379;DHT22;61664;48.112;11.662;2023-02-03T04:07:41;7.90;86.50
31379;DHT22;61664;48.112;11.662;2023-02-03T04:10:24;7.80;86.60
31379;DHT22;61664;48.112;11.662;2023-02-03T04:12:55;7.90;85.10
31379;DHT22;61664;48.112;11.662;2023-02-03T04:15:22;7.90;86.70
31379;DHT22;61664;48.112;11.662;2023-02-03T04:17:49;7.90;86.50
31379;DHT22;61664;48.112;11.662;2023-02-03T04:20:16;7.80;86.70
31379;DHT22;61664;48.112;11.662;2023-02-03T04:22:43;7.90;86.50
31379;DHT22;61664;48.112;11.662;2023-02-03T04:25:10;7.90;86.60
31379;DHT22;61664;48.112;11.662;2023-02-03T04:27:37;7.80;86.70
31379;DHT22;61664;48.112;11.662;2023-02-03T04:30:05;7.90;86.60
31379;DHT22;61664;48.112;11.662;2023-02-03T04:32:32;7.90;86.50
31379;DHT22;61664;48.112;11.662;2023-02-03T04:35:02;8.00;86.60
31379;DHT22;61664;48.112;11.662;2023-02-03T04:37:31;7.90;86.40
31379;DHT22;61664;48.112;11.662;2023-02-03T04:39:59;7.90;86.40
31379;DHT22;61664;48.112;11.662;2023-02-03T04:42:26;7.90;86.50
31379;DHT22;61664;48.112;11.662;2023-02-03T04:44:53;7.90;86.40
31379;DHT22;61664;48.112;11.662;2023-02-03T04:47:20;7.80;86.30
31379;DHT22;61664;48.112;11.662;2023-02-03T04:49:47;7.90;86.40
31379;DHT22;61664;48.112;11.662;2023-02-03T04:52:14;7.90;86.50
31379;DHT22;61664;48.112;11.662;2023-02-03T04:54:41;7.80;86.20
31379;DHT22;61664;48.112;11.662;2023-02-03T04:57:08;7.90;86.60
31379;DHT22;61664;48.112;11.662;2023-02-03T04:59:35;7.90;86.60
31379;DHT22;61664;48.112;11.662;2023-02-03T05:02:02;7.90;86.40
31379;DHT22;61664;48.112;11.662;2023-02-03T05:04:30;7.90;86.50
31379;DHT22;61664;48.112;11.662;2023-02-03T05:06:57;7.90;86.50
31379;DHT22;61664;48.112;11.662;2023-02-03T05:09:24;7.90;86.40
31379;DHT22;61664;48.112;11.662;2023-02-03T05:11:52;7.90;86.40
31379;DHT22;61664;48.112;11.662;2023-02-03T05:14:19;7.90;86.50
31379;DHT22;61664;48.112;11.662;2023-02-03T05:16:46;7.90;86.50
31379;DHT22;61664;48.112;11.662;2023-02-03T05:19:13;7.90;86.40
31379;DHT22;61664;48.112;11.662;2023-02-03T05:21:40;7.90;86.40
31379;DHT22;61664;48.112;11.662;2023-02-03T05:24:07;7.90;86.60
31379;DHT22;61664;48.112;11.662;2023-02-03T05:26:34;7.90;86.50
31379;DHT22;61664;48.112;11.662;2023-02-03T05:29:02;7.90;86.70
31379;DHT22;61664;48.112;11.662;2023-02-03T05:31:29;7.90;86.70
31379;DHT22;61664;48.112;11.662;2023-02-03T05:33:56;7.90;86.70
31379;DHT22;61664;48.112;11.662;2023-02-03T05:36:23;7.90;86.60
31379;DHT22;61664;48.112;11.662;2023-02-03T05:38:50;7.90;86.70
31379;DHT22;61664;48.112;11.662;2023-02-03T05:41:16;7.90;86.60
31379;DHT22;61664;48.112;11.662;2023-02-03T05:44:02;7.90;86.60
31379;DHT22;61664;48.112;11.662;2023-02-03T05:46:29;7.90;86.50
31379;DHT22;61664;48.112;11.662;2023-02-03T05:48:56;7.90;86.60
31379;DHT22;61664;48.112;11.662;2023-02-03T05:51:22;7.90;86.70
31379;DHT22;61664;48.112;11.662;2023-02-03T05:53:50;7.90;86.70
31379;DHT22;61664;48.112;11.662;2023-02-03T05:56:18;7.90;86.70
31379;DHT22;61664;48.112;11.662;2023-02-03T05:58:45;7.90;86.60
31379;DHT22;61664;48.112;11.662;2023-02-03T06:01:12;7.90;86.70
31379;DHT22;61664;48.112;11.662;2023-02-03T06:03:39;7.90;86.50
31379;DHT22;61664;48.112;11.662;2023-02-03T06:06:06;7.90;86.60
31379;DHT22;61664;48.112;11.662;2023-02-03T06:08:33;7.90;86.60
31379;DHT22;61664;48.112;11.662;2023-02-03T06:11:00;7.80;86.40
31379;DHT22;61664;48.112;11.662;2023-02-03T06:13:27;7.90;86.50
31379;DHT22;61664;48.112;11.662;2023-02-03T06:15:54;7.80;86.50
31379;DHT22;61664;48.112;11.662;2023-02-03T06:18:22;7.80;86.50
31379;DHT22;61664;48.112;11.662;2023-02-03T06:20:49;7.80;86.50
31379;DHT22;61664;48.112;11.662;2023-02-03T06:23:16;7.80;86.40
31379;DHT22;61664;48.112;11.662;2023-02-03T06:25:47;7.80;86.60
31379;DHT22;61664;48.112;11.662;2023-02-03T06:28:15;7.80;86.40
31379;DHT22;61664;48.112;11.662;2023-02-03T06:30:42;7.80;86.70
31379;DHT22;61664;48.112;11.662;2023-02-03T06:33:09;7.80;86.70
31379;DHT22;61664;48.112;11.662;2023-02-03T06:35:36;7.80;86.90
31379;DHT22;61664;48.112;11.662;2023-02-03T06:38:03;7.80;86.80
31379;DHT22;61664;48.112;11.662;2023-02-03T06:40:30;7.80;86.90
31379;DHT22;61664;48.112;11.662;2023-02-03T06:42:57;7.80;86.80
31379;DHT22;61664;48.112;11.662;2023-02-03T06:45:24;7.80;87.00
31379;DHT22;61664;48.112;11.662;2023-02-03T06:47:51;7.80;87.00
31379;DHT22;61664;48.112;11.662;2023-02-03T06:50:18;7.80;86.90
31379;DHT22;61664;48.112;11.662;2023-02-03T06:52:45;7.80;86.90
31379;DHT22;61664;48.112;11.662;2023-02-03T06:55:14;7.80;86.80
31379;DHT22;61664;48.112;11.662;2023-02-03T06:57:45;7.80;87.00
31379;DHT22;61664;48.112;11.662;2023-02-03T07:00:15;7.80;86.80
31379;DHT22;61664;48.112;11.662;2023-02-03T07:02:45;7.80;86.70
31379;DHT22;61664;48.112;11.662;2023-02-03T07:05:12;7.90;86.90
31379;DHT22;61664;48.112;11.662;2023-02-03T07:07:39;7.80;86.90
31379;DHT22;61664;48.112;11.662;2023-02-03T07:10:06;7.90;87.00
31379;DHT22;61664;48.112;11.662;2023-02-03T07:12:34;7.80;86.90
31379;DHT22;61664;48.112;11.662;2023-02-03T07:15:03;7.90;87.10
31379;DHT22;61664;48.112;11.662;2023-02-03T07:17:30;7.90;86.90
31379;DHT22;61664;48.112;11.662;2023-02-03T07:19:59;7.90;87.00
31379;DHT22;61664;48.112;11.662;2023-02-03T07:22:26;7.90;86.80
31379;DHT22;61664;48.112;11.662;2023-02-03T07:24:53;7.90;87.00
31379;DHT22;61664;48.112;11.662;2023-02-03T07:27:20;7.90;87.10
31379;DHT22;61664;48.112;11.662;2023-02-03T07:29:47;8.00;87.20
31379;DHT22;61664;48.112;11.662;2023-02-03T07:32:14;8.00;87.00
31379;DHT22;61664;48.112;11.662;2023-02-03T07:34:41;8.00;87.00
31379;DHT22;61664;48.112;11.662;2023-02-03T07:37:09;8.00;87.00
31379;DHT22;61664;48.112;11.662;2023-02-03T07:39:36;8.10;86.70
31379;DHT22;61664;48.112;11.662;2023-02-03T07:42:03;8.10;86.90
31379;DHT22;61664;48.112;11.662;2023-02-03T07:44:30;8.10;87.10
31379;DHT22;61664;48.112;11.662;2023-02-03T07:46:57;8.10;87.00
31379;DHT22;61664;48.112;11.662;2023-02-03T07:49:23;8.10;87.10
31379;DHT22;61664;48.112;11.662;2023-02-03T07:51:50;8.10;87.10
31379;DHT22;61664;48.112;11.662;2023-02-03T07:54:17;8.10;87.10
31379;DHT22;61664;48.112;11.662;2023-02-03T07:56:44;8.20;87.20
31379;DHT22;61664;48.112;11.662;2023-02-03T07:59:11;8.20;87.20
31379;DHT22;61664;48.112;11.662;2023-02-03T08:01:38;8.30;87.50
31379;DHT22;61664;48.112;11.662;2023-02-03T08:04:05;8.30;87.50
31379;DHT22;61664;48.112;11.662;2023-02-03T08:06:32;8.30;87.40
31379;DHT22;61664;48.112;11.662;2023-02-03T08:08:59;8.30;87.50
31379;DHT22;61664;48.112;11.662;2023-02-03T08:11:26;8.40;87.60
31379;DHT22;61664;48.112;11.662;2023-02-03T08:13:52;8.40;87.60
31379;DHT22;61664;48.112;11.662;2023-02-03T08:16:19;8.40;87.50
31379;DHT22;61664;48.112;11.662;2023-02-03T08:18:46;8.50;87.50
31379;DHT22;61664;48.112;11.662;2023-02-03T08:21:13;8.60;87.50
31379;DHT22;61664;48.112;11.662;2023-02-03T08:23:40;8.60;87.60
31379;DHT22;61664;48.112;11.662;2023-02-03T08:26:07;8.60;87.50
31379;DHT22;61664;48.112;11.662;2023-02-03T08:28:34;8.60;87.60
31379;DHT22;61664;48.112;11.662;2023-02-03T08:31:00;8.70;87.50
31379;DHT22;61664;48.112;11.662;2023-02-03T08:33:27;8.70;87.50
31379;DHT22;61664;48.112;11.662;2023-02-03T08:35:55;8.70;87.60
31379;DHT22;61664;48.112;11.662;2023-02-03T08:38:22;8.80;87.50
31379;DHT22;61664;48.112;11.662;2023-02-03T08:40:49;8.80;87.60
31379;DHT22;61664;48.112;11.662;2023-02-03T08:43:16;8.80;87.30
31379;DHT22;61664;48.112;11.662;2023-02-03T08:45:43;8.90;87.20
31379;DHT22;61664;48.112;11.662;2023-02-03T08:48:10;8.90;87.20
31379;DHT22;61664;48.112;11.662;2023-02-03T08:50:41;8.90;87.20
31379;DHT22;61664;48.112;11.662;2023-02-03T08:53:09;8.90;87.10
31379;DHT22;61664;48.112;11.662;2023-02-03T08:55:40;9.00;87.10
31379;DHT22;61664;48.112;11.662;2023-02-03T08:58:06;8.90;85.90
31379;DHT22;61664;48.112;11.662;2023-02-03T09:00:33;9.00;86.90
31379;DHT22;61664;48.112;11.662;2023-02-03T09:03:00;9.00;87.00
31379;DHT22;61664;48.112;11.662;2023-02-03T09:05:29;9.00;86.90
31379;DHT22;61664;48.112;11.662;2023-02-03T09:07:57;9.00;86.70
31379;DHT22;61664;48.112;11.662;2023-02-03T09:10:24;9.10;86.90
31379;DHT22;61664;48.112;11.662;2023-02-03T09:12:51;9.10;87.00
31379;DHT22;61664;48.112;11.662;2023-02-03T09:15:18;9.00;86.90
31379;DHT22;61664;48.112;11.662;2023-02-03T09:17:45;9.10;86.90
31379;DHT22;61664;48.112;11.662;2023-02-03T09:20:12;9.10;87.00
31379;DHT22;61664;48.112;11.662;2023-02-03T09:22:40;9.10;87.10
31379;DHT22;61664;48.112;11.662;2023-02-03T09:25:07;9.20;87.20
31379;DHT22;61664;48.112;11.662;2023-02-03T09:27:34;9.20;87.10
31379;DHT22;61664;48.112;11.662;2023-02-03T09:30:01;9.30;87.10
31379;DHT22;61664;48.112;11.662;2023-02-03T09:32:28;9.20;87.00
31379;DHT22;61664;48.112;11.662;2023-02-03T09:34:55;9.30;86.90
31379;DHT22;61664;48.112;11.662;2023-02-03T09:37:22;9.30;86.60
31379;DHT22;61664;48.112;11.662;2023-02-03T09:39:49;9.30;86.80
31379;DHT22;61664;48.112;11.662;2023-02-03T09:45:19;9.40;85.70
31379;DHT22;61664;48.112;11.662;2023-02-03T09:47:53;9.40;86.20
31379;DHT22;61664;48.112;11.662;2023-02-03T09:50:30;9.40;86.30
31379;DHT22;61664;48.112;11.662;2023-02-03T09:53:04;9.40;86.40
31379;DHT22;61664;48.112;11.662;2023-02-03T09:55:41;9.50;86.50
31379;DHT22;61664;48.112;11.662;2023-02-03T09:58:14;9.50;86.60
31379;DHT22;61664;48.112;11.662;2023-02-03T10:00:49;9.50;86.40
31379;DHT22;61664;48.112;11.662;2023-02-03T10:03:40;9.60;86.90
31379;DHT22;61664;48.112;11.662;2023-02-03T10:06:44;9.60;86.80
31379;DHT22;61664;48.112;11.662;2023-02-03T10:18:17;9.80;85.00
31379;DHT22;61664;48.112;11.662;2023-02-03T10:20:55;9.80;84.90
31379;DHT22;61664;48.112;11.662;2023-02-03T10:23:32;9.80;85.50
31379;DHT22;61664;48.112;11.662;2023-02-03T10:26:05;9.80;84.20
31379;DHT22;61664;48.112;11.662;2023-02-03T10:28:54;9.90;85.10
31379;DHT22;61664;48.112;11.662;2023-02-03T10:31:32;9.80;82.90
31379;DHT22;61664;48.112;11.662;2023-02-03T10:34:11;9.90;84.80
31379;DHT22;61664;48.112;11.662;2023-02-03T10:39:48;9.90;84.50
31379;DHT22;61664;48.112;11.662;2023-02-03T10:42:18;9.90;85.10
31379;DHT22;61664;48.112;11.662;2023-02-03T10:44:51;9.90;85.00
31379;DHT22;61664;48.112;11.662;2023-02-03T10:50:04;9.90;83.80
31379;DHT22;61664;48.112;11.662;2023-02-03T10:52:42;9.90;84.70
31379;DHT22;61664;48.112;11.662;2023-02-03T10:57:53;9.90;81.20
31379;DHT22;61664;48.112;11.662;2023-02-03T11:03:15;10.00;82.30
31379;DHT22;61664;48.112;11.662;2023-02-03T11:05:46;10.00;83.30
31379;DHT22;61664;48.112;11.662;2023-02-03T11:08:14;9.90;84.70
31379;DHT22;61664;48.112;11.662;2023-02-03T11:10:42;10.00;84.70
31379;DHT22;61664;48.112;11.662;2023-02-03T11:13:23;9.90;85.00
31379;DHT22;61664;48.112;11.662;2023-02-03T11:18:44;10.00;85.70
31379;DHT22;61664;48.112;11.662;2023-02-03T11:24:22;10.00;83.50
31379;DHT22;61664;48.112;11.662;2023-02-03T11:26:56;10.10;83.00
31379;DHT22;61664;48.112;11.662;2023-02-03T11:29:31;10.10;84.00
31379;DHT22;61664;48.112;11.662;2023-02-03T11:32:16;10.10;83.80
31379;DHT22;61664;48.112;11.662;2023-02-03T11:35:11;10.10;83.60
31379;DHT22;61664;48.112;11.662;2023-02-03T11:37:55;10.20;85.00
31379;DHT22;61664;48.112;11.662;2023-02-03T11:45:29;10.20;85.60
31379;DHT22;61664;48.112;11.662;2023-02-03T11:48:27;10.30;85.80
31379;DHT22;61664;48.112;11.662;2023-02-03T11:54:01;10.40;84.40
31379;DHT22;61664;48.112;11.662;2023-02-03T11:56:59;10.40;84.00
31379;DHT22;61664;48.112;11.662;2023-02-03T11:59:55;10.40;80.70
31379;DHT22;61664;48.112;11.662;2023-02-03T12:03:13;10.50;82.70
31379;DHT22;61664;48.112;11.662;2023-02-03T12:06:00;10.50;80.80
31379;DHT22;61664;48.112;11.662;2023-02-03T12:21:18;10.60;79.00
31379;DHT22;61664;48.112;11.662;2023-02-03T12:24:14;10.60;82.50
31379;DHT22;61664;48.112;11.662;2023-02-03T12:30:26;10.50;79.90
31379;DHT22;61664;48.112;11.662;2023-02-03T12:32:59;10.50;81.30
31379;DHT22;61664;48.112;11.662;2023-02-03T12:40:53;10.50;83.70
31379;DHT22;61664;48.112;11.662;2023-02-03T12:46:16;10.50;80.30
31379;DHT22;61664;48.112;11.662;2023-02-03T12:52:11;10.50;81.70
31379;DHT22;61664;48.112;11.662;2023-02-03T12:58:09;10.50;83.60
31379;DHT22;61664;48.112;11.662;2023-02-03T13:03:36;10.50;81.90
31379;DHT22;61664;48.112;11.662;2023-02-03T13:06:18;10.50;79.90
31379;DHT22;61664;48.112;11.662;2023-02-03T13:09:05;10.50;80.90
31379;DHT22;61664;48.112;11.662;2023-02-03T13:17:29;10.50;83.00
31379;DHT22;61664;48.112;11.662;2023-02-03T13:20:14;10.50;78.10
31379;DHT22;61664;48.112;11.662;2023-02-03T13:22:45;10.50;82.10
31379;DHT22;61664;48.112;11.662;2023-02-03T13:43:09;10.30;78.50
31379;DHT22;61664;48.112;11.662;2023-02-03T13:45:42;10.30;81.80
31379;DHT22;61664;48.112;11.662;2023-02-03T13:48:21;10.20;82.10
31379;DHT22;61664;48.112;11.662;2023-02-03T13:51:03;10.20;79.90
31379;DHT22;61664;48.112;11.662;2023-02-03T13:53:38;10.20;81.30
31379;DHT22;61664;48.112;11.662;2023-02-03T13:56:08;10.20;83.60
31379;DHT22;61664;48.112;11.662;2023-02-03T14:01:40;10.40;81.10
31379;DHT22;61664;48.112;11.662;2023-02-03T14:12:17;10.50;78.20
31379;DHT22;61664;48.112;11.662;2023-02-03T14:20:03;10.30;78.60
31379;DHT22;61664;48.112;11.662;2023-02-03T14:23:05;10.30;80.20
31379;DHT22;61664;48.112;11.662;2023-02-03T14:25:56;10.20;77.90
31379;DHT22;61664;48.112;11.662;2023-02-03T14:28:35;10.10;80.80
31379;DHT22;61664;48.112;11.662;2023-02-03T14:31:19;10.10;80.20
31379;DHT22;61664;48.112;11.662;2023-02-03T14:33:55;10.10;81.00
31379;DHT22;61664;48.112;11.662;2023-02-03T14:50:30;10.00;79.20
31379;DHT22;61664;48.112;11.662;2023-02-03T14:58:54;9.90;79.80
31379;DHT22;61664;48.112;11.662;2023-02-03T15:06:42;9.80;79.80
31379;DHT22;61664;48.112;11.662;2023-02-03T15:09:27;9.80;81.20
31379;DHT22;61664;48.112;11.662;2023-02-03T15:11:58;9.80;79.80
31379;DHT22;61664;48.112;11.662;2023-02-03T15:14:27;9.80;81.70
31379;DHT22;61664;48.112;11.662;2023-02-03T15:17:10;9.80;81.30
31379;DHT22;61664;48.112;11.662;2023-02-03T15:19:40;9.80;80.30
31379;DHT22;61664;48.112;11.662;2023-02-03T15:22:37;9.70;81.20
31379;DHT22;61664;48.112;11.662;2023-02-03T15:25:16;9.70;78.20
31379;DHT22;61664;48.112;11.662;2023-02-03T15:27:43;9.80;79.30
31379;DHT22;61664;48.112;11.662;2023-02-03T15:30:25;9.70;80.90
31379;DHT22;61664;48.112;11.662;2023-02-03T15:33:20;9.70;79.60
31379;DHT22;61664;48.112;11.662;2023-02-03T15:35:56;9.70;80.20
31379;DHT22;61664;48.112;11.662;2023-02-03T15:38:53;9.70;80.70
31379;DHT22;61664;48.112;11.662;2023-02-03T15:41:30;9.70;80.00
31379;DHT22;61664;48.112;11.662;2023-02-03T15:44:01;9.70;81.30
31379;DHT22;61664;48.112;11.662;2023-02-03T15:46:43;9.70;81.20
31379;DHT22;61664;48.112;11.662;2023-02-03T15:49:20;9.70;80.40
31379;DHT22;61664;48.112;11.662;2023-02-03T15:52:13;9.70;80.60
31379;DHT22;61664;48.112;11.662;2023-02-03T15:54:48;9.70;80.50
31379;DHT22;61664;48.112;11.662;2023-02-03T15:57:22;9.70;80.90
31379;DHT22;61664;48.112;11.662;2023-02-03T16:00:00;9.70;80.50
31379;DHT22;61664;48.112;11.662;2023-02-03T16:02:42;9.70;80.30
31379;DHT22;61664;48.112;11.662;2023-02-03T16:05:24;9.70;79.10
31379;DHT22;61664;48.112;11.662;2023-02-03T16:07:54;9.70;80.30
31379;DHT22;61664;48.112;11.662;2023-02-03T16:10:25;9.60;80.90
31379;DHT22;61664;48.112;11.662;2023-02-03T16:13:33;9.60;80.30
31379;DHT22;61664;48.112;11.662;2023-02-03T16:16:20;9.60;78.30
31379;DHT22;61664;48.112;11.662;2023-02-03T16:18:55;9.60;80.50
31379;DHT22;61664;48.112;11.662;2023-02-03T16:21:34;9.60;80.40
31379;DHT22;61664;48.112;11.662;2023-02-03T16:29:56;9.60;79.30
31379;DHT22;61664;48.112;11.662;2023-02-03T16:33:12;9.50;80.30
31379;DHT22;61664;48.112;11.662;2023-02-03T16:36:08;9.50;79.70
31379;DHT22;61664;48.112;11.662;2023-02-03T16:39:00;9.50;80.10
31379;DHT22;61664;48.112;11.662;2023-02-03T16:41:47;9.50;80.60
31379;DHT22;61664;48.112;11.662;2023-02-03T16:44:32;9.50;80.70
31379;DHT22;61664;48.112;11.662;2023-02-03T16:47:29;9.50;81.00
31379;DHT22;61664;48.112;11.662;2023-02-03T16:50:20;9.50;79.80
31379;DHT22;61664;48.112;11.662;2023-02-03T16:53:13;9.50;80.40
31379;DHT22;61664;48.112;11.662;2023-02-03T16:55:45;9.40;80.70
31379;DHT22;61664;48.112;11.662;2023-02-03T16:58:13;9.40;81.10
31379;DHT22;61664;48.112;11.662;2023-02-03T17:00:41;9.40;81.10
31379;DHT22;61664;48.112;11.662;2023-02-03T17:03:21;9.40;81.30
31379;DHT22;61664;48.112;11.662;2023-02-03T17:05:50;9.40;80.00
31379;DHT22;61664;48.112;11.662;2023-02-03T17:08:19;9.40;81.20
31379;DHT22;61664;48.112;11.662;2023-02-03T17:10:49;9.40;81.00
31379;DHT22;61664;48.112;11.662;2023-02-03T17:13:18;9.40;81.50
31379;DHT22;61664;48.112;11.662;2023-02-03T17:15:48;9.40;81.00
31379;DHT22;61664;48.112;11.662;2023-02-03T17:18:18;9.40;81.20
31379;DHT22;61664;48.112;11.662;2023-02-03T17:20:45;9.40;81.40
31379;DHT22;61664;48.112;11.662;2023-02-03T17:23:13;9.40;81.20
31379;DHT22;61664;48.112;11.662;2023-02-03T17:25:48;9.40;81.00
31379;DHT22;61664;48.112;11.662;2023-02-03T17:28:15;9.40;79.30
31379;DHT22;61664;48.112;11.662;2023-02-03T17:30:43;9.30;79.70
31379;DHT22;61664;48.112;11.662;2023-02-03T17:33:10;9.30;80.00
31379;DHT22;61664;48.112;11.662;2023-02-03T17:35:42;9.30;80.50
31379;DHT22;61664;48.112;11.662;2023-02-03T17:38:12;9.20;79.90
31379;DHT22;61664;48.112;11.662;2023-02-03T17:40:42;9.20;81.00
31379;DHT22;61664;48.112;11.662;2023-02-03T17:43:27;9.20;80.40
31379;DHT22;61664;48.112;11.662;2023-02-03T17:46:21;9.20;81.40
31379;DHT22;61664;48.112;11.662;2023-02-03T17:49:07;9.20;81.00
31379;DHT22;61664;48.112;11.662;2023-02-03T17:51:52;9.20;81.00
31379;DHT22;61664;48.112;11.662;2023-02-03T17:54:36;9.20;81.20
31379;DHT22;61664;48.112;11.662;2023-02-03T17:57:03;9.20;81.50
31379;DHT22;61664;48.112;11.662;2023-02-03T17:59:30;9.20;81.50
31379;DHT22;61664;48.112;11.662;2023-02-03T18:01:59;9.20;81.20
31379;DHT22;61664;48.112;11.662;2023-02-03T18:04:27;9.20;81.00
31379;DHT22;61664;48.112;11.662;2023-02-03T18:06:54;9.20;80.50
31379;DHT22;61664;48.112;11.662;2023-02-03T18:09:21;9.20;80.40
31379;DHT22;61664;48.112;11.662;2023-02-03T18:11:48;9.10;80.40
31379;DHT22;61664;48.112;11.662;2023-02-03T18:14:15;9.10;80.50
31379;DHT22;61664;48.112;11.662;2023-02-03T18:16:43;9.10;80.70
31379;DHT22;61664;48.112;11.662;2023-02-03T18:19:13;9.10;80.70
31379;DHT22;61664;48.112;11.662;2023-02-03T18:21:42;9.10;80.70
31379;DHT22;61664;48.112;11.662;2023-02-03T18:24:11;9.00;80.70
31379;DHT22;61664;48.112;11.662;2023-02-03T18:26:50;9.00;80.60
31379;DHT22;61664;48.112;11.662;2023-02-03T18:29:17;9.00;79.90
31379;DHT22;61664;48.112;11.662;2023-02-03T18:31:45;9.00;80.00
31379;DHT22;61664;48.112;11.662;2023-02-03T18:34:15;8.90;79.80
31379;DHT22;61664;48.112;11.662;2023-02-03T18:36:42;8.90;79.80
31379;DHT22;61664;48.112;11.662;2023-02-03T18:39:10;8.80;80.00
31379;DHT22;61664;48.112;11.662;2023-02-03T18:41:38;8.80;80.10
31379;DHT22;61664;48.112;11.662;2023-02-03T18:44:05;8.70;80.40
31379;DHT22;61664;48.112;11.662;2023-02-03T18:46:32;8.70;80.80
31379;DHT22;61664;48.112;11.662;2023-02-03T18:49:00;8.70;80.90
31379;DHT22;61664;48.112;11.662;2023-02-03T18:51:27;8.70;81.00
31379;DHT22;61664;48.112;11.662;2023-02-03T18:53:57;8.70;81.20